createdAt,value
2019-05-23T00:00:07.664Z,12.30
2019-05-23T00:02:52.821Z,12.20
2019-05-23T00:05:38.548Z,12.10
2019-05-23T00:08:18.987Z,12.00
2019-05-23T00:10:56.531Z,11.90
2019-05-23T00:13:45.741Z,11.90
2019-05-23T00:16:17.801Z,11.80
2019-05-23T00:18:49.434Z,11.70
2019-05-23T00:21:21.076Z,11.60
2019-05-23T00:23:51.765Z,11.60
2019-05-23T00:26:23.099Z,11.60
2019-05-23T00:29:09.076Z,11.50
2019-05-23T00:31:32.392Z,11.50
2019-05-23T00:34:02.630Z,11.50
2019-05-23T00:36:32.751Z,11.50
2019-05-23T00:39:04.538Z,11.40
2019-05-23T00:41:35.194Z,11.40
2019-05-23T00:44:06.326Z,11.40
2019-05-23T00:46:37.481Z,11.40
2019-05-23T00:49:08.299Z,11.40
2019-05-23T00:51:40.254Z,11.40
2019-05-23T00:54:11.017Z,11.40
2019-05-23T00:56:41.970Z,11.40
2019-05-23T00:59:25.948Z,11.50
2019-05-23T01:01:43.849Z,11.50
2019-05-23T01:04:14.736Z,11.50
2019-05-23T01:06:44.881Z,11.60
2019-05-23T01:09:16.972Z,11.60
2019-05-23T01:11:49.782Z,11.60
2019-05-23T01:14:20.302Z,11.60
2019-05-23T01:16:51.030Z,11.60
2019-05-23T01:19:24.210Z,11.60
2019-05-23T01:22:00.426Z,11.60
2019-05-23T01:24:52.543Z,11.60
2019-05-23T01:27:23.430Z,11.60
2019-05-23T01:29:57.964Z,11.50
2019-05-23T01:32:44.643Z,11.50
2019-05-23T01:35:19.317Z,11.50
2019-05-23T01:37:49.640Z,11.50
2019-05-23T01:40:20.255Z,11.50
2019-05-23T01:42:51.610Z,11.50
2019-05-23T01:45:22.752Z,11.50
2019-05-23T01:47:53.274Z,11.60
2019-05-23T01:50:25.995Z,11.60
2019-05-23T01:52:57.785Z,11.70
2019-05-23T01:55:28.227Z,11.70
2019-05-23T01:58:00.519Z,11.70
2019-05-23T02:00:33.255Z,11.80
2019-05-23T02:03:03.794Z,11.80
2019-05-23T02:05:37.292Z,11.70
2019-05-23T02:08:10.705Z,11.70
2019-05-23T02:10:41.300Z,11.60
2019-05-23T02:13:12.520Z,11.50
2019-05-23T02:15:43.887Z,11.40
2019-05-23T02:18:16.080Z,11.30
2019-05-23T02:20:46.438Z,11.10
2019-05-23T02:23:19.653Z,11.00
2019-05-23T02:25:50.258Z,10.90
2019-05-23T02:28:21.036Z,10.80
2019-05-23T02:30:51.856Z,10.70
2019-05-23T02:33:22.296Z,10.60
2019-05-23T02:35:52.857Z,10.50
2019-05-23T02:38:57.114Z,10.40
2019-05-23T02:41:33.885Z,10.40
2019-05-23T02:44:08.922Z,10.30
2019-05-23T02:46:57.672Z,10.20
2019-05-23T02:49:31.493Z,10.20
2019-05-23T02:52:14.299Z,10.10
2019-05-23T02:54:45.182Z,10.10
2019-05-23T02:57:19.214Z,10.00
2019-05-23T02:59:54.493Z,10.00
2019-05-23T03:03:03.074Z,9.90
2019-05-23T03:05:37.353Z,9.90
2019-05-23T03:08:10.093Z,9.80
2019-05-23T03:10:54.656Z,9.80
2019-05-23T03:13:28.221Z,9.70
2019-05-23T03:16:00.560Z,9.70
2019-05-23T03:18:34.932Z,9.70
2019-05-23T03:21:05.778Z,9.70
2019-05-23T03:23:36.256Z,9.60
2019-05-23T03:26:44.807Z,9.60
2019-05-23T03:29:15.717Z,9.60
2019-05-23T03:32:02.132Z,9.60
2019-05-23T03:34:34.606Z,9.50
2019-05-23T03:37:05.725Z,9.50
2019-05-23T03:39:35.921Z,9.50
2019-05-23T03:42:07.332Z,9.50
2019-05-23T03:44:39.211Z,9.50
2019-05-23T03:47:13.120Z,9.40
2019-05-23T03:49:43.373Z,9.40
2019-05-23T03:52:15.154Z,9.40
2019-05-23T03:54:46.941Z,9.40
2019-05-23T03:57:18.708Z,9.40
2019-05-23T03:59:50.534Z,9.40
2019-05-23T04:02:23.998Z,9.40
2019-05-23T04:04:56.402Z,9.40
2019-05-23T04:07:26.596Z,9.40
2019-05-23T04:09:56.652Z,9.40
2019-05-23T04:12:27.070Z,9.50
2019-05-23T04:14:57.691Z,9.50
2019-05-23T04:17:29.850Z,9.50
2019-05-23T04:20:00.061Z,9.60
2019-05-23T04:22:30.689Z,9.60
2019-05-23T04:25:02.313Z,9.70
2019-05-23T04:27:33.075Z,9.80
2019-05-23T04:30:03.143Z,9.90
2019-05-23T04:32:33.750Z,9.90
2019-05-23T04:35:04.855Z,10.00
2019-05-23T04:37:35.221Z,10.10
2019-05-23T04:40:06.503Z,10.20
2019-05-23T04:42:36.646Z,10.30
2019-05-23T04:45:08.142Z,10.40
2019-05-23T04:47:40.693Z,10.50
2019-05-23T04:50:12.476Z,10.60
2019-05-23T04:52:43.096Z,10.70
2019-05-23T04:55:15.412Z,10.80
2019-05-23T04:57:47.056Z,10.90
2019-05-23T05:00:18.691Z,11.00
2019-05-23T05:02:49.098Z,11.10
2019-05-23T05:05:19.488Z,11.20
2019-05-23T05:07:49.787Z,11.30
2019-05-23T05:10:23.620Z,11.40
2019-05-23T05:12:54.026Z,11.60
2019-05-23T05:15:27.456Z,11.70
2019-05-23T05:17:58.395Z,11.80
2019-05-23T05:20:29.056Z,12.00
2019-05-23T05:23:01.010Z,12.20
2019-05-23T05:25:31.200Z,12.40
2019-05-23T05:28:01.385Z,12.60
2019-05-23T05:30:32.522Z,12.70
2019-05-23T05:33:02.788Z,12.80
2019-05-23T05:35:35.190Z,13.00
2019-05-23T05:38:05.756Z,13.10
2019-05-23T05:40:36.196Z,13.20
2019-05-23T05:43:07.078Z,13.30
2019-05-23T05:45:38.342Z,13.40
2019-05-23T05:48:09.672Z,13.40
2019-05-23T05:50:39.887Z,13.50
2019-05-23T05:53:10.052Z,13.50
2019-05-23T05:55:40.192Z,13.50
2019-05-23T05:58:10.453Z,13.50
2019-05-23T06:00:57.520Z,13.50
2019-05-23T06:03:28.244Z,13.50
2019-05-23T06:06:20.264Z,13.50
2019-05-23T06:08:54.649Z,13.50
2019-05-23T06:11:25.002Z,13.50
2019-05-23T06:13:55.888Z,13.50
2019-05-23T06:16:28.983Z,13.60
2019-05-23T06:18:59.279Z,13.70
2019-05-23T06:21:30.104Z,13.70
2019-05-23T06:24:00.263Z,13.80
2019-05-23T06:26:31.189Z,13.90
2019-05-23T06:29:01.585Z,14.00
2019-05-23T06:31:32.025Z,14.10
2019-05-23T06:34:02.301Z,14.30
2019-05-23T06:36:33.064Z,14.50
2019-05-23T06:39:04.825Z,14.60
2019-05-23T06:41:35.415Z,14.90
2019-05-23T06:44:07.356Z,15.10
2019-05-23T06:46:37.759Z,15.40
2019-05-23T06:49:07.960Z,15.60
2019-05-23T06:51:38.056Z,15.80
2019-05-23T06:54:09.407Z,16.10
2019-05-23T06:56:39.547Z,16.30
2019-05-23T06:59:09.691Z,16.50
2019-05-23T07:01:42.736Z,16.70
2019-05-23T07:04:12.936Z,16.80
2019-05-23T07:06:45.388Z,17.00
2019-05-23T07:09:17.521Z,17.00
2019-05-23T07:11:47.941Z,17.20
2019-05-23T07:14:18.604Z,17.30
2019-05-23T07:16:50.375Z,17.30
2019-05-23T07:19:21.440Z,17.40
2019-05-23T07:21:51.677Z,17.40
2019-05-23T07:24:21.909Z,17.40
2019-05-23T07:26:52.134Z,17.40
2019-05-23T07:29:22.201Z,17.50
2019-05-23T07:31:53.018Z,17.60
2019-05-23T07:34:24.079Z,17.70
2019-05-23T07:36:54.887Z,17.80
2019-05-23T07:39:25.072Z,17.80
2019-05-23T07:41:55.198Z,17.80
2019-05-23T07:44:25.548Z,17.90
2019-05-23T07:46:55.658Z,17.90
2019-05-23T07:49:27.851Z,17.90
2019-05-23T07:51:57.988Z,18.00
2019-05-23T07:54:36.423Z,18.00
2019-05-23T07:57:10.822Z,18.10
2019-05-23T07:59:40.916Z,18.20
2019-05-23T08:02:25.643Z,18.30
2019-05-23T08:04:56.343Z,18.40
2019-05-23T08:07:27.539Z,18.60
2019-05-23T08:09:57.792Z,18.70
2019-05-23T08:12:28.515Z,18.90
2019-05-23T08:14:58.805Z,19.00
2019-05-23T08:17:29.251Z,19.00
2019-05-23T08:19:59.586Z,19.10
2019-05-23T08:22:30.971Z,19.20
2019-05-23T08:25:01.171Z,19.40
2019-05-23T08:27:34.021Z,19.40
2019-05-23T08:30:05.582Z,19.50
2019-05-23T08:32:36.298Z,19.50
2019-05-23T08:35:07.133Z,19.50
2019-05-23T08:37:40.253Z,19.60
2019-05-23T08:40:11.073Z,19.60
2019-05-23T08:42:42.584Z,19.70
2019-05-23T08:45:13.043Z,19.80
2019-05-23T08:47:43.656Z,19.80
2019-05-23T08:50:14.917Z,19.80
2019-05-23T08:52:45.178Z,20.00
2019-05-23T08:55:21.152Z,20.10
2019-05-23T08:57:52.028Z,20.30
2019-05-23T09:00:24.369Z,20.30
2019-05-23T09:02:58.711Z,20.40
2019-05-23T09:05:30.474Z,20.40
2019-05-23T09:08:02.625Z,20.40
2019-05-23T09:10:32.827Z,20.40
2019-05-23T09:13:03.655Z,20.40
2019-05-23T09:15:34.466Z,20.40
2019-05-23T09:18:05.378Z,20.50
2019-05-23T09:20:36.258Z,20.50
2019-05-23T09:23:08.449Z,20.50
2019-05-23T09:25:38.566Z,20.50
2019-05-23T09:28:09.676Z,20.50
2019-05-23T09:30:40.055Z,20.60
2019-05-23T09:33:10.812Z,20.80
2019-05-23T09:35:42.126Z,20.90
2019-05-23T09:38:12.340Z,21.00
2019-05-23T09:40:42.685Z,21.10
2019-05-23T09:43:13.998Z,21.10
2019-05-23T09:45:44.428Z,21.20
2019-05-23T09:48:14.627Z,21.50
2019-05-23T09:50:44.835Z,21.70
2019-05-23T09:53:15.883Z,21.90
2019-05-23T09:55:46.128Z,22.00
2019-05-23T09:58:16.465Z,22.00
2019-05-23T10:00:48.019Z,21.90
2019-05-23T10:03:18.213Z,21.90
2019-05-23T10:05:48.548Z,22.00
2019-05-23T10:08:18.710Z,22.10
2019-05-23T10:10:49.375Z,22.20
2019-05-23T10:13:36.060Z,22.20
2019-05-23T10:16:05.405Z,22.20
2019-05-23T10:18:35.743Z,22.10
2019-05-23T10:21:06.322Z,22.20
2019-05-23T10:23:36.396Z,22.30
2019-05-23T10:26:07.376Z,22.30
2019-05-23T10:28:37.573Z,22.40
2019-05-23T10:31:10.418Z,22.50
2019-05-23T10:33:40.652Z,22.70
2019-05-23T10:36:10.806Z,22.90
2019-05-23T10:38:42.223Z,22.90
2019-05-23T10:41:12.540Z,22.90
2019-05-23T10:43:42.708Z,22.90
2019-05-23T10:46:12.840Z,22.80
2019-05-23T10:48:43.317Z,22.80
2019-05-23T10:51:13.547Z,22.80
2019-05-23T10:53:43.672Z,22.90
2019-05-23T10:56:20.302Z,22.90
2019-05-23T10:58:48.382Z,22.80
2019-05-23T11:01:18.958Z,23.00
2019-05-23T11:03:49.161Z,23.00
2019-05-23T11:06:19.956Z,23.00
2019-05-23T11:08:50.376Z,22.90
2019-05-23T11:11:21.045Z,22.80
2019-05-23T11:13:51.253Z,23.00
2019-05-23T11:16:22.247Z,23.20
2019-05-23T11:18:52.537Z,23.30
2019-05-23T11:21:22.824Z,23.30
2019-05-23T11:23:54.621Z,23.50
2019-05-23T11:26:24.854Z,23.60
2019-05-23T11:28:55.224Z,23.70
2019-05-23T11:31:26.181Z,24.00
2019-05-23T11:33:56.500Z,24.10
2019-05-23T11:36:35.583Z,24.40
2019-05-23T11:38:58.666Z,24.60
2019-05-23T11:41:29.374Z,24.90
2019-05-23T11:43:59.832Z,25.00
2019-05-23T11:46:32.675Z,25.20
2019-05-23T11:49:03.182Z,25.40
2019-05-23T11:51:34.400Z,25.40
2019-05-23T11:54:09.071Z,25.50
2019-05-23T11:56:38.701Z,25.30
2019-05-23T11:59:09.767Z,25.20
2019-05-23T12:02:05.229Z,25.10
2019-05-23T12:04:42.994Z,25.20
2019-05-23T12:07:24.238Z,25.30
2019-05-23T12:09:54.393Z,25.50
2019-05-23T12:12:25.286Z,25.50
2019-05-23T12:14:57.075Z,25.40
2019-05-23T12:17:30.818Z,25.10
2019-05-23T12:20:00.951Z,24.80
2019-05-23T12:22:31.718Z,24.40
2019-05-23T12:25:20.201Z,24.50
2019-05-23T12:27:33.946Z,24.90
2019-05-23T12:30:06.061Z,25.10
2019-05-23T12:32:37.811Z,25.10
2019-05-23T12:35:11.241Z,25.10
2019-05-23T12:37:40.154Z,25.10
2019-05-23T12:40:11.691Z,24.90
2019-05-23T12:42:42.012Z,24.80
2019-05-23T12:45:12.653Z,25.10
2019-05-23T12:47:56.944Z,25.50
2019-05-23T12:50:30.919Z,25.50
2019-05-23T12:53:01.099Z,25.60
2019-05-23T12:55:31.614Z,25.80
2019-05-23T12:58:02.013Z,25.90
2019-05-23T13:00:41.879Z,25.80
2019-05-23T13:03:14.088Z,25.80
2019-05-23T13:05:48.323Z,25.60
2019-05-23T13:08:18.953Z,25.70
2019-05-23T13:10:48.996Z,25.80
2019-05-23T13:13:19.268Z,25.50
2019-05-23T13:15:49.398Z,25.20
2019-05-23T13:18:19.517Z,25.00
2019-05-23T13:20:49.855Z,25.10
2019-05-23T13:23:24.401Z,25.30
2019-05-23T13:25:54.570Z,25.60
2019-05-23T13:28:24.983Z,25.60
2019-05-23T13:30:55.062Z,25.70
2019-05-23T13:33:26.309Z,25.80
2019-05-23T13:35:56.490Z,26.00
2019-05-23T13:38:28.607Z,26.00
2019-05-23T13:40:58.717Z,26.10
2019-05-23T13:43:29.278Z,26.10
2019-05-23T13:45:59.900Z,26.10
2019-05-23T13:48:30.220Z,26.00
2019-05-23T13:51:00.705Z,26.00
2019-05-23T13:53:32.548Z,25.80
2019-05-23T13:56:02.767Z,25.70
2019-05-23T13:58:33.097Z,25.90
2019-05-23T14:01:08.770Z,26.20
2019-05-23T14:03:36.678Z,26.10
2019-05-23T14:06:08.716Z,25.90
2019-05-23T14:08:38.910Z,25.80
2019-05-23T14:11:10.039Z,25.60
2019-05-23T14:13:40.281Z,25.50
2019-05-23T14:16:10.519Z,25.70
2019-05-23T14:18:40.884Z,25.80
2019-05-23T14:21:11.039Z,26.00
2019-05-23T14:23:41.109Z,26.20
2019-05-23T14:26:12.299Z,26.40
2019-05-23T14:28:42.886Z,26.30
2019-05-23T14:31:15.172Z,26.30
2019-05-23T14:33:48.111Z,26.20
2019-05-23T14:36:24.102Z,26.40
2019-05-23T14:38:56.619Z,26.40
2019-05-23T14:41:44.140Z,26.40
2019-05-23T14:44:00.175Z,26.10
2019-05-23T14:46:34.558Z,25.90
2019-05-23T14:49:26.202Z,26.10
2019-05-23T14:52:10.788Z,26.10
2019-05-23T14:54:43.675Z,26.60
2019-05-23T14:57:14.336Z,28.00
2019-05-23T14:59:44.437Z,29.50
2019-05-23T15:02:18.286Z,30.50
2019-05-23T15:04:58.742Z,31.30
2019-05-23T15:07:29.238Z,32.00
2019-05-23T15:09:59.451Z,32.20
2019-05-23T15:12:29.688Z,31.80
2019-05-23T15:15:00.007Z,31.60
2019-05-23T15:17:30.243Z,30.60
2019-05-23T15:20:00.369Z,31.00
2019-05-23T15:22:31.706Z,31.50
2019-05-23T15:25:01.949Z,32.10
2019-05-23T15:27:33.224Z,32.90
2019-05-23T15:30:04.480Z,33.50
2019-05-23T15:32:35.150Z,33.40
2019-05-23T15:35:05.865Z,34.10
2019-05-23T15:37:36.041Z,33.70
2019-05-23T15:40:10.966Z,33.20
2019-05-23T15:42:43.244Z,32.80
2019-05-23T15:45:14.052Z,33.30
2019-05-23T15:47:44.319Z,33.60
2019-05-23T15:50:17.356Z,32.70
2019-05-23T15:52:56.143Z,32.40
2019-05-23T15:55:33.848Z,31.40
2019-05-23T15:58:14.799Z,31.00
2019-05-23T16:01:19.381Z,30.50
2019-05-23T16:03:53.089Z,30.70
2019-05-23T16:06:25.067Z,31.10
2019-05-23T16:08:55.436Z,31.60
2019-05-23T16:11:25.984Z,32.10
2019-05-23T16:13:56.877Z,32.90
2019-05-23T16:16:27.795Z,32.90
2019-05-23T16:18:58.324Z,32.80
2019-05-23T16:21:30.071Z,32.80
2019-05-23T16:24:01.204Z,32.90
2019-05-23T16:26:31.572Z,32.90
2019-05-23T16:29:01.693Z,33.00
2019-05-23T16:31:32.451Z,33.60
2019-05-23T16:34:02.756Z,34.00
2019-05-23T16:36:32.979Z,34.40
2019-05-23T16:39:03.610Z,34.80
2019-05-23T16:41:33.744Z,35.40
2019-05-23T16:44:04.300Z,35.60
2019-05-23T16:46:37.127Z,35.60
2019-05-23T16:49:07.340Z,35.40
2019-05-23T16:51:37.535Z,34.80
2019-05-23T16:54:07.577Z,34.50
2019-05-23T16:56:52.094Z,34.20
2019-05-23T16:59:28.355Z,34.20
2019-05-23T17:02:16.261Z,34.20
2019-05-23T17:05:16.389Z,34.00
2019-05-23T17:07:54.811Z,33.90
2019-05-23T17:10:34.572Z,33.80
2019-05-23T17:13:09.760Z,33.80
2019-05-23T17:15:57.648Z,32.90
2019-05-23T17:18:46.341Z,32.20
2019-05-23T17:21:33.664Z,32.60
2019-05-23T17:24:11.045Z,32.60
2019-05-23T17:26:52.109Z,32.20
2019-05-23T17:29:29.335Z,31.50
2019-05-23T17:31:59.623Z,31.20
2019-05-23T17:34:30.009Z,30.50
2019-05-23T17:37:00.327Z,30.00
2019-05-23T17:39:30.517Z,29.70
2019-05-23T17:42:00.763Z,29.40
2019-05-23T17:44:30.986Z,29.00
2019-05-23T17:47:01.085Z,28.50
2019-05-23T17:49:34.112Z,28.20
2019-05-23T17:52:05.565Z,27.80
2019-05-23T17:54:40.601Z,27.50
2019-05-23T17:57:11.504Z,27.20
2019-05-23T17:59:41.856Z,27.00
2019-05-23T18:02:15.855Z,26.80
2019-05-23T18:04:46.020Z,26.70
2019-05-23T18:07:17.013Z,26.60
2019-05-23T18:09:48.672Z,26.40
2019-05-23T18:12:19.155Z,26.20
2019-05-23T18:14:49.803Z,26.00
2019-05-23T18:17:20.217Z,26.00
2019-05-23T18:19:54.338Z,25.80
2019-05-23T18:22:25.293Z,25.70
2019-05-23T18:24:59.637Z,25.60
2019-05-23T18:27:27.797Z,25.40
2019-05-23T18:30:00.301Z,25.30
2019-05-23T18:32:31.350Z,25.10
2019-05-23T18:35:03.104Z,24.90
2019-05-23T18:37:33.371Z,24.60
2019-05-23T18:40:04.261Z,24.40
2019-05-23T18:42:34.912Z,24.10
2019-05-23T18:45:07.030Z,23.90
2019-05-23T18:47:40.785Z,23.70
2019-05-23T18:50:13.077Z,23.50
2019-05-23T18:52:44.415Z,23.30
2019-05-23T18:55:15.207Z,23.10
2019-05-23T18:57:46.109Z,22.90
2019-05-23T19:00:20.040Z,22.70
2019-05-23T19:02:51.195Z,22.60
2019-05-23T19:05:23.343Z,22.40
2019-05-23T19:07:57.117Z,22.30
2019-05-23T19:10:30.696Z,22.20
2019-05-23T19:13:01.884Z,22.10
2019-05-23T19:15:34.674Z,21.90
2019-05-23T19:18:09.147Z,21.80
2019-05-23T19:20:40.795Z,21.70
2019-05-23T19:23:14.254Z,21.60
2019-05-23T19:25:45.888Z,21.40
2019-05-23T19:28:17.860Z,21.30
2019-05-23T19:30:51.057Z,21.20
2019-05-23T19:33:26.093Z,21.10
2019-05-23T19:35:57.724Z,21.00
2019-05-23T19:38:29.487Z,20.80
2019-05-23T19:41:01.146Z,20.70
2019-05-23T19:43:35.892Z,20.50
2019-05-23T19:46:07.122Z,20.40
2019-05-23T19:48:39.829Z,20.20
2019-05-23T19:51:11.758Z,20.10
2019-05-23T19:53:42.734Z,20.00
2019-05-23T19:56:13.720Z,19.80
2019-05-23T19:58:44.142Z,19.70
2019-05-23T20:01:15.755Z,19.60
2019-05-23T20:03:47.955Z,19.50
2019-05-23T20:06:18.845Z,19.40
2019-05-23T20:08:49.809Z,19.30
2019-05-23T20:11:20.386Z,19.30
2019-05-23T20:13:50.775Z,19.20
2019-05-23T20:16:23.614Z,19.10
2019-05-23T20:18:53.671Z,19.00
2019-05-23T20:21:24.022Z,19.00
2019-05-23T20:23:54.172Z,18.90
2019-05-23T20:26:24.344Z,18.90
2019-05-23T20:28:54.565Z,18.90
2019-05-23T20:31:25.487Z,18.90
2019-05-23T20:33:55.617Z,18.90
2019-05-23T20:36:26.018Z,18.80
2019-05-23T20:38:56.219Z,18.80
2019-05-23T20:41:26.466Z,18.80
2019-05-23T20:43:56.678Z,18.80
2019-05-23T20:46:26.906Z,18.80
2019-05-23T20:48:57.270Z,18.80
2019-05-23T20:51:27.830Z,18.70
2019-05-23T20:53:58.112Z,18.70
2019-05-23T20:56:28.270Z,18.70
2019-05-23T20:59:01.521Z,18.70
2019-05-23T21:01:35.170Z,18.60
2019-05-23T21:04:06.101Z,18.60
2019-05-23T21:06:36.360Z,18.50
2019-05-23T21:09:08.413Z,18.50
2019-05-23T21:11:38.569Z,18.50
2019-05-23T21:14:08.923Z,18.50
2019-05-23T21:16:39.079Z,18.50
2019-05-23T21:19:09.200Z,18.50
2019-05-23T21:21:39.338Z,18.50
2019-05-23T21:24:09.670Z,18.50
2019-05-23T21:26:39.915Z,18.50
2019-05-23T21:29:10.298Z,18.50
2019-05-23T21:31:40.471Z,18.60
2019-05-23T21:34:10.682Z,18.60
2019-05-23T21:36:40.912Z,18.60
2019-05-23T21:39:13.027Z,18.60
2019-05-23T21:41:43.150Z,18.60
2019-05-23T21:44:13.289Z,18.50
2019-05-23T21:46:43.618Z,18.50
2019-05-23T21:49:13.690Z,18.30
2019-05-23T21:51:43.807Z,18.20
2019-05-23T21:54:14.125Z,18.10
2019-05-23T21:56:44.266Z,18.00
2019-05-23T21:59:14.328Z,18.00
2019-05-23T22:02:13.001Z,17.90
2019-05-23T22:05:11.924Z,18.00
2019-05-23T22:07:43.217Z,18.00
2019-05-23T22:10:13.748Z,18.10
2019-05-23T22:12:44.065Z,18.20
2019-05-23T22:15:18.008Z,18.20
2019-05-23T22:17:49.071Z,18.30
2019-05-23T22:20:19.426Z,18.30
2019-05-23T22:22:49.500Z,18.30
2019-05-23T22:25:31.673Z,18.30
2019-05-23T22:28:01.752Z,18.30
2019-05-23T22:30:31.866Z,18.30
2019-05-23T22:33:03.374Z,18.40
2019-05-23T22:35:35.726Z,18.40
2019-05-23T22:38:06.691Z,18.40
2019-05-23T22:40:38.646Z,18.30
2019-05-23T22:43:20.673Z,18.30
2019-05-23T22:45:41.078Z,18.20
2019-05-23T22:48:11.212Z,18.10
2019-05-23T22:50:41.323Z,18.00
2019-05-23T22:53:11.385Z,17.90
2019-05-23T22:55:41.415Z,17.80
2019-05-23T22:58:11.458Z,17.80
2019-05-23T23:00:43.580Z,17.70
2019-05-23T23:03:13.817Z,17.60
2019-05-23T23:05:43.981Z,17.60
2019-05-23T23:08:14.348Z,17.50
2019-05-23T23:10:44.561Z,17.40
2019-05-23T23:13:15.079Z,17.30
2019-05-23T23:15:45.284Z,17.20
2019-05-23T23:18:15.389Z,17.10
2019-05-23T23:20:46.214Z,17.00
2019-05-23T23:23:16.579Z,16.90
2019-05-23T23:25:46.948Z,16.80
2019-05-23T23:28:17.053Z,16.70
2019-05-23T23:30:48.583Z,16.60
2019-05-23T23:33:18.761Z,16.50
2019-05-23T23:35:48.849Z,16.50
2019-05-23T23:38:19.035Z,16.50
2019-05-23T23:40:49.196Z,16.40
2019-05-23T23:43:19.433Z,16.40
2019-05-23T23:46:07.173Z,16.40
2019-05-23T23:48:54.985Z,16.30
2019-05-23T23:51:42.764Z,16.30
2019-05-23T23:54:30.815Z,16.30
2019-05-23T23:57:19.151Z,16.30
2019-05-23T23:59:48.436Z,16.30
